Christmas Island Airport
YPXM : now visible

Airfield :











YOU CAN JOIN US ON...

 
LOGIN :

Register | Disclaimer

   EN    FR    IT 

 









Legend :    VFR   Marginal VFR   IFR   Intensive IFR   Very Intensive IFR
Visi :
Ceiling :
>= 8 km
>= 3000ft
5 to 8 km
1000 to 3000 ft
1500m to 5 km
500 to 1000 ft
800 to 1500m
200 to 500 ft
< 800m
< 200 ft
Symbols :   Thunderstorms  Fog  Heavy snow  Heavy precipitations  Wind > 20 kt






- Airport Elevation : 916 ft
- IATA code : XCH


YPXM - Christmas Island

CURRENT METAR :
  • 090500Z AUTO 09011KT 9999 // BKN020 BKN031 28/23 Q1011

EXPIRED METARs :
  • 090430Z AUTO 09012KT 9999 // SCT020 BKN023 BKN031 27/22 Q1012
  • 090400Z AUTO 09010KT 9999 // BKN018 BKN028 27/22 Q1012
  • 090330Z AUTO 09010KT 9999 // BKN017 BKN024 BKN029 27/23 Q1012
  • 090300Z AUTO 09010KT 9999 // BKN017 BKN022 OVC027 28/23 Q1013
  • 090230Z AUTO 09011KT 9999 // BKN016 BKN025 27/22 Q1013

TAF AMD TAF YPXM
Valid from the 08 at 23:00 until the 10 at 00:00 UTC


082315Z 0823/1000 10012KT 9999 BKN016
FM091400 10010KT 9999 BKN012
WIIF FIR / Asia



MET'MAP, your aeronautical weather chart ! - Copyright ORBIFLY December 2007 - Disclaimer

ORBIFLY MET'MAP TEAM :

Programming & Development : Alexandra Zaïnal
Concept & original design : Baudouin d'Aumeries
Assistance for programming : Marc-Olivier Méhu
Technical & hardware support : Manuel Goepfert

Contact : metmap@orbifly.com




SOURCES & CREDITS :

   NOAA       Earth
Advisory